Date,TemperatureHighF,TemperatureAvgF,TemperatureLowF,DewpointHighF,DewpointAvgF,DewpointLowF,HumidityHigh,HumidityAvg,HumidityLow,PressureMaxIn,PressureMinIn,WindSpeedMaxMPH,WindSpeedAvgMPH,GustSpeedMaxMPH,PrecipitationSumIn
2013-12-1,12,9,4,-100,-100,-100,0,0,100,0.00,40.00,0,-999,0,0.00
2013-12-2,17,13,11,-100,-100,-100,0,0,100,0.00,40.00,0,-999,0,0.00
2013-12-3,17,13,9,-100,-100,-100,0,0,100,0.00,40.00,0,-999,0,0.00
2013-12-4,30,27,21,-100,-100,-100,0,0,100,0.00,40.00,0,-999,0,0.00
2013-12-5,33,31,30,-100,-100,-100,0,0,100,0.00,40.00,0,-999,0,0.00
2013-12-6,43,38,30,-100,-100,-100,0,0,100,0.00,40.00,0,-999,0,0.00
2013-12-7,31,30,29,-100,-100,-100,0,0,100,0.00,40.00,0,-999,0,0.00
2013-12-8,31,30,28,-100,-100,-100,0,0,100,0.00,40.00,0,-999,0,0.00
2013-12-9,32,31,28,-100,-100,-100,0,0,100,0.00,40.00,0,-999,0,0.00
2013-12-10,31,30,29,-100,-100,-100,0,0,100,0.00,40.00,0,-999,0,0.00
2013-12-11,29,24,15,-100,-100,-100,0,0,100,0.00,40.00,0,-999,0,0.00
2013-12-12,15,13,9,-100,-100,-100,0,0,100,0.00,40.00,0,-999,0,0.00
2013-12-13,18,16,12,-100,-100,-100,0,0,100,0.00,40.00,0,-999,0,0.00
2013-12-14,20,18,16,-100,-100,-100,0,0,100,0.00,40.00,0,-999,0,0.00
2013-12-15,17,14,6,-100,-100,-100,0,0,100,0.00,40.00,0,-999,0,0.00
2013-12-16,9,3,-2,-100,-100,-100,0,0,100,0.00,40.00,0,-999,0,0.00
2013-12-17,-1,-3,-7,-100,-100,-100,0,0,100,0.00,40.00,0,-999,0,0.00
2013-12-18,24,12,-4,-100,-100,-100,0,0,100,0.00,40.00,0,-999,0,0.00
2013-12-19,25,19,11,-100,-100,-100,0,0,100,0.00,40.00,0,-999,0,0.00
2013-12-20,36,25,16,-100,-100,-100,0,0,100,0.00,40.00,0,-999,0,0.00
2013-12-21,38,34,31,-100,-100,-100,0,0,100,0.00,40.00,0,-999,0,0.00
2013-12-22,31,30,28,-100,-100,-100,0,0,100,0.00,40.00,0,-999,0,0.00
2013-12-23,28,17,9,-100,-100,-100,0,0,100,0.00,40.00,0,-999,0,0.00
2013-12-24,13,11,8,-100,-100,-100,0,0,100,0.00,40.00,0,-999,0,0.00
2013-12-25,10,7,5,-100,-100,-100,0,0,100,0.00,40.00,0,-999,0,0.00
2013-12-26,13,9,6,-100,-100,-100,0,0,100,0.00,40.00,0,-999,0,0.00
2013-12-27,21,15,7,-100,-100,-100,0,0,100,0.00,40.00,0,-999,0,0.00
2013-12-28,21,19,17,-100,-100,-100,0,0,100,0.00,40.00,0,-999,0,0.00
2013-12-29,26,22,17,-100,-100,-100,0,0,100,0.00,40.00,0,-999,0,0.00
2013-12-30,26,22,18,-100,-100,-100,0,0,100,0.00,40.00,0,-999,0,0.00
2013-12-31,35,28,17,-100,-100,-100,0,0,100,0.00,40.00,0,-999,0,0.00